sensor_id;sensor_type;location;lat;lon;timestamp;pressure;altitude;pressure_sealevel;temperature;humidity
41234;BME280;26968;42.686;23.352;2022-08-19T00:01:48;94996.63;;;24.74;48.85
41234;BME280;26968;42.686;23.352;2022-08-19T00:04:15;94974.75;;;24.60;48.50
41234;BME280;26968;42.686;23.352;2022-08-19T00:06:44;94956.06;;;24.51;48.50
41234;BME280;26968;42.686;23.352;2022-08-19T00:09:13;94995.72;;;24.63;48.62
41234;BME280;26968;42.686;23.352;2022-08-19T00:11:40;94975.19;;;24.62;48.75
41234;BME280;26968;42.686;23.352;2022-08-19T00:14:08;94962.41;;;24.33;49.23
41234;BME280;26968;42.686;23.352;2022-08-19T00:16:35;94951.56;;;24.33;48.81
41234;BME280;26968;42.686;23.352;2022-08-19T00:19:01;94973.50;;;24.01;48.99
41234;BME280;26968;42.686;23.352;2022-08-19T00:21:26;94891.34;;;23.67;48.84
41234;BME280;26968;42.686;23.352;2022-08-19T00:23:53;95019.03;;;24.68;48.24
41234;BME280;26968;42.686;23.352;2022-08-19T00:26:19;94991.25;;;24.48;48.35
41234;BME280;26968;42.686;23.352;2022-08-19T00:28:45;95015.19;;;24.72;48.79
41234;BME280;26968;42.686;23.352;2022-08-19T00:31:11;95008.19;;;24.68;48.38
41234;BME280;26968;42.686;23.352;2022-08-19T00:33:37;94922.19;;;24.12;48.31
41234;BME280;26968;42.686;23.352;2022-08-19T00:36:05;94874.25;;;23.86;48.62
41234;BME280;26968;42.686;23.352;2022-08-19T00:38:32;94982.25;;;24.40;49.17
41234;BME280;26968;42.686;23.352;2022-08-19T00:40:58;95019.03;;;24.68;49.01
41234;BME280;26968;42.686;23.352;2022-08-19T00:43:26;94916.81;;;23.89;48.63
41234;BME280;26968;42.686;23.352;2022-08-19T00:45:52;94970.31;;;24.45;48.87
41234;BME280;26968;42.686;23.352;2022-08-19T00:48:19;95010.09;;;24.67;48.95
41234;BME280;26968;42.686;23.352;2022-08-19T00:50:47;94982.25;;;24.40;49.20
41234;BME280;26968;42.686;23.352;2022-08-19T00:53:16;94957.56;;;23.73;50.72
41234;BME280;26968;42.686;23.352;2022-08-19T00:55:46;94911.03;;;23.64;50.47
41234;BME280;26968;42.686;23.352;2022-08-19T00:58:15;94907.72;;;23.52;50.26
41234;BME280;26968;42.686;23.352;2022-08-19T01:00:42;94946.56;;;23.85;50.12
41234;BME280;26968;42.686;23.352;2022-08-19T01:03:11;95013.78;;;24.26;50.70
41234;BME280;26968;42.686;23.352;2022-08-19T01:05:38;94944.78;;;23.70;50.57
41234;BME280;26968;42.686;23.352;2022-08-19T01:08:06;94975.50;;;23.81;51.13
41234;BME280;26968;42.686;23.352;2022-08-19T01:10:37;94961.34;;;23.46;51.71
41234;BME280;26968;42.686;23.352;2022-08-19T01:13:04;95016.25;;;23.89;51.67
41234;BME280;26968;42.686;23.352;2022-08-19T01:15:38;95019.72;;;23.89;51.86
41234;BME280;26968;42.686;23.352;2022-08-19T01:18:08;95017.25;;;24.03;51.49
41234;BME280;26968;42.686;23.352;2022-08-19T01:20:34;94963.31;;;23.68;51.44
41234;BME280;26968;42.686;23.352;2022-08-19T01:23:01;94856.94;;;22.99;51.28
41234;BME280;26968;42.686;23.352;2022-08-19T01:25:33;95012.25;;;24.05;51.00
41234;BME280;26968;42.686;23.352;2022-08-19T01:28:00;94950.88;;;23.64;50.98
41234;BME280;26968;42.686;23.352;2022-08-19T01:30:29;94905.38;;;23.50;50.80
41234;BME280;26968;42.686;23.352;2022-08-19T01:32:56;94981.31;;;23.80;50.91
41234;BME280;26968;42.686;23.352;2022-08-19T01:35:24;94902.63;;;23.27;51.05
41234;BME280;26968;42.686;23.352;2022-08-19T01:37:51;95003.06;;;24.10;50.62
41234;BME280;26968;42.686;23.352;2022-08-19T01:40:18;94938.28;;;23.10;51.78
41234;BME280;26968;42.686;23.352;2022-08-19T01:42:46;95002.56;;;23.59;52.16
41234;BME280;26968;42.686;23.352;2022-08-19T01:45:13;94965.59;;;23.24;52.43
41234;BME280;26968;42.686;23.352;2022-08-19T01:47:38;94999.75;;;23.52;51.23
41234;BME280;26968;42.686;23.352;2022-08-19T01:50:06;94981.38;;;23.41;51.37
41234;BME280;26968;42.686;23.352;2022-08-19T01:52:31;94903.75;;;22.81;51.92
41234;BME280;26968;42.686;23.352;2022-08-19T01:54:57;95016.13;;;23.59;52.08
41234;BME280;26968;42.686;23.352;2022-08-19T01:57:23;94843.63;;;22.49;51.86
41234;BME280;26968;42.686;23.352;2022-08-19T01:59:48;94846.34;;;22.10;52.69
41234;BME280;26968;42.686;23.352;2022-08-19T02:02:15;94946.06;;;22.92;52.30
41234;BME280;26968;42.686;23.352;2022-08-19T02:04:40;94906.28;;;22.74;51.96
41234;BME280;26968;42.686;23.352;2022-08-19T02:07:07;94954.28;;;23.19;51.71
41234;BME280;26968;42.686;23.352;2022-08-19T02:09:33;94941.66;;;22.84;51.89
41234;BME280;26968;42.686;23.352;2022-08-19T02:11:59;94987.38;;;23.31;51.56
41234;BME280;26968;42.686;23.352;2022-08-19T02:14:25;94971.00;;;23.24;51.47
41234;BME280;26968;42.686;23.352;2022-08-19T02:16:51;94985.28;;;23.44;51.46
41234;BME280;26968;42.686;23.352;2022-08-19T02:19:16;95020.59;;;23.70;51.32
41234;BME280;26968;42.686;23.352;2022-08-19T02:21:42;94910.56;;;22.94;51.31
41234;BME280;26968;42.686;23.352;2022-08-19T02:24:09;94897.31;;;22.89;51.50
41234;BME280;26968;42.686;23.352;2022-08-19T02:26:34;95017.34;;;23.42;51.96
41234;BME280;26968;42.686;23.352;2022-08-19T02:29:00;95000.59;;;23.36;52.05
41234;BME280;26968;42.686;23.352;2022-08-19T02:31:26;95020.88;;;23.46;52.18
41234;BME280;26968;42.686;23.352;2022-08-19T02:33:53;94911.44;;;22.79;52.10
41234;BME280;26968;42.686;23.352;2022-08-19T02:36:19;94962.13;;;23.04;52.00
41234;BME280;26968;42.686;23.352;2022-08-19T02:38:46;95020.63;;;23.51;51.85
41234;BME280;26968;42.686;23.352;2022-08-19T02:41:23;95013.44;;;23.39;51.88
41234;BME280;26968;42.686;23.352;2022-08-19T02:43:49;94899.22;;;22.69;51.76
41234;BME280;26968;42.686;23.352;2022-08-19T02:46:18;95001.56;;;23.25;51.46
41234;BME280;26968;42.686;23.352;2022-08-19T02:48:50;95027.38;;;23.41;52.11
41234;BME280;26968;42.686;23.352;2022-08-19T02:51:19;94897.97;;;22.63;51.34
41234;BME280;26968;42.686;23.352;2022-08-19T02:53:44;94789.84;;;21.86;51.50
41234;BME280;26968;42.686;23.352;2022-08-19T02:56:10;95018.19;;;23.27;51.51
41234;BME280;26968;42.686;23.352;2022-08-19T02:58:35;95036.78;;;23.28;52.34
41234;BME280;26968;42.686;23.352;2022-08-19T03:01:01;95034.66;;;23.18;52.89
41234;BME280;26968;42.686;23.352;2022-08-19T03:03:26;95039.66;;;23.16;52.99
41234;BME280;26968;42.686;23.352;2022-08-19T03:06:03;94932.16;;;22.55;52.86
41234;BME280;26968;42.686;23.352;2022-08-19T03:08:28;94906.84;;;22.25;53.05
41234;BME280;26968;42.686;23.352;2022-08-19T03:10:55;94961.41;;;22.50;53.46
41234;BME280;26968;42.686;23.352;2022-08-19T03:13:21;94887.66;;;21.79;54.02
41234;BME280;26968;42.686;23.352;2022-08-19T03:15:47;95012.97;;;22.60;54.27
41234;BME280;26968;42.686;23.352;2022-08-19T03:18:13;94919.25;;;21.94;54.34
41234;BME280;26968;42.686;23.352;2022-08-19T03:20:43;95022.38;;;22.51;55.01
41234;BME280;26968;42.686;23.352;2022-08-19T03:23:10;95003.75;;;22.46;54.93
41234;BME280;26968;42.686;23.352;2022-08-19T03:25:37;95006.25;;;22.54;54.57
41234;BME280;26968;42.686;23.352;2022-08-19T03:28:04;94965.34;;;22.37;54.26
41234;BME280;26968;42.686;23.352;2022-08-19T03:30:29;94982.72;;;22.55;54.24
41234;BME280;26968;42.686;23.352;2022-08-19T03:32:54;94889.66;;;21.67;54.74
41234;BME280;26968;42.686;23.352;2022-08-19T03:35:20;94957.81;;;22.26;53.98
41234;BME280;26968;42.686;23.352;2022-08-19T03:37:46;95000.78;;;22.51;53.97
41234;BME280;26968;42.686;23.352;2022-08-19T03:40:11;94963.94;;;22.43;53.64
41234;BME280;26968;42.686;23.352;2022-08-19T03:42:37;95020.84;;;22.85;53.56
41234;BME280;26968;42.686;23.352;2022-08-19T03:45:02;95032.69;;;22.96;53.54
41234;BME280;26968;42.686;23.352;2022-08-19T03:47:28;94994.91;;;22.64;53.55
41234;BME280;26968;42.686;23.352;2022-08-19T03:49:53;95030.81;;;22.81;53.78
41234;BME280;26968;42.686;23.352;2022-08-19T03:52:19;94987.78;;;22.56;53.57
41234;BME280;26968;42.686;23.352;2022-08-19T03:54:45;95001.31;;;22.56;53.95
41234;BME280;26968;42.686;23.352;2022-08-19T03:57:10;94997.09;;;22.59;53.51
41234;BME280;26968;42.686;23.352;2022-08-19T03:59:37;95048.53;;;22.97;53.51
41234;BME280;26968;42.686;23.352;2022-08-19T04:02:08;95053.09;;;22.93;54.00
41234;BME280;26968;42.686;23.352;2022-08-19T04:04:34;95060.13;;;22.98;53.74
41234;BME280;26968;42.686;23.352;2022-08-19T04:07:00;94970.28;;;22.15;54.05
41234;BME280;26968;42.686;23.352;2022-08-19T04:09:26;95051.16;;;22.59;54.34
41234;BME280;26968;42.686;23.352;2022-08-19T04:11:53;95072.06;;;22.78;54.35
41234;BME280;26968;42.686;23.352;2022-08-19T04:14:22;94970.19;;;22.27;54.48
41234;BME280;26968;42.686;23.352;2022-08-19T04:16:48;95052.69;;;22.76;54.08
41234;BME280;26968;42.686;23.352;2022-08-19T04:19:15;95067.94;;;22.84;54.63
41234;BME280;26968;42.686;23.352;2022-08-19T04:21:43;95064.59;;;22.90;54.42
41234;BME280;26968;42.686;23.352;2022-08-19T04:24:09;95043.56;;;22.64;54.52
41234;BME280;26968;42.686;23.352;2022-08-19T04:26:35;94976.72;;;22.26;54.87
41234;BME280;26968;42.686;23.352;2022-08-19T04:29:08;95075.84;;;22.92;54.99
41234;BME280;26968;42.686;23.352;2022-08-19T04:31:34;95060.28;;;22.86;54.91
41234;BME280;26968;42.686;23.352;2022-08-19T04:34:03;94934.31;;;22.11;54.34
41234;BME280;26968;42.686;23.352;2022-08-19T04:36:31;95020.53;;;22.70;54.42
41234;BME280;26968;42.686;23.352;2022-08-19T04:39:00;95083.28;;;23.15;54.15
41234;BME280;26968;42.686;23.352;2022-08-19T04:41:26;94957.53;;;22.51;54.07
41234;BME280;26968;42.686;23.352;2022-08-19T04:44:11;95035.00;;;22.97;53.92
41234;BME280;26968;42.686;23.352;2022-08-19T04:46:37;95054.31;;;23.15;53.33
41234;BME280;26968;42.686;23.352;2022-08-19T04:49:04;95060.28;;;23.24;53.07
41234;BME280;26968;42.686;23.352;2022-08-19T04:51:32;95061.47;;;23.27;53.04
41234;BME280;26968;42.686;23.352;2022-08-19T04:53:58;95068.06;;;23.26;53.02
41234;BME280;26968;42.686;23.352;2022-08-19T04:56:26;94990.19;;;22.77;52.73
41234;BME280;26968;42.686;23.352;2022-08-19T04:58:53;95076.81;;;23.38;52.16
41234;BME280;26968;42.686;23.352;2022-08-19T05:01:26;94985.81;;;22.73;51.84
41234;BME280;26968;42.686;23.352;2022-08-19T05:03:54;94859.84;;;21.94;51.65
41234;BME280;26968;42.686;23.352;2022-08-19T05:06:21;94966.03;;;22.68;51.72
41234;BME280;26968;42.686;23.352;2022-08-19T05:08:48;95076.59;;;23.47;51.78
41234;BME280;26968;42.686;23.352;2022-08-19T05:11:20;95084.69;;;23.47;51.66
41234;BME280;26968;42.686;23.352;2022-08-19T05:13:47;94939.78;;;22.50;51.61
41234;BME280;26968;42.686;23.352;2022-08-19T05:16:19;94997.56;;;22.99;51.45
41234;BME280;26968;42.686;23.352;2022-08-19T05:18:44;95033.38;;;23.31;51.41
41234;BME280;26968;42.686;23.352;2022-08-19T05:21:29;94994.78;;;23.15;51.79
41234;BME280;26968;42.686;23.352;2022-08-19T05:24:14;94985.75;;;23.07;51.88
41234;BME280;26968;42.686;23.352;2022-08-19T05:26:43;95024.63;;;23.19;51.74
41234;BME280;26968;42.686;23.352;2022-08-19T05:29:11;95039.78;;;23.23;51.65
41234;BME280;26968;42.686;23.352;2022-08-19T05:31:37;94998.94;;;23.09;50.91
41234;BME280;26968;42.686;23.352;2022-08-19T05:34:04;94891.84;;;22.47;50.68
41234;BME280;26968;42.686;23.352;2022-08-19T05:36:34;95080.19;;;23.74;50.99
41234;BME280;26968;42.686;23.352;2022-08-19T05:39:02;94899.16;;;22.46;50.82
41234;BME280;26968;42.686;23.352;2022-08-19T05:41:28;95018.69;;;23.13;51.04
41234;BME280;26968;42.686;23.352;2022-08-19T05:43:55;95040.84;;;23.38;50.99
41234;BME280;26968;42.686;23.352;2022-08-19T05:46:21;94996.00;;;23.18;50.63
41234;BME280;26968;42.686;23.352;2022-08-19T05:48:47;94936.69;;;22.51;51.18
41234;BME280;26968;42.686;23.352;2022-08-19T05:51:14;95084.47;;;23.75;50.57
41234;BME280;26968;42.686;23.352;2022-08-19T05:53:41;94910.84;;;22.50;50.90
41234;BME280;26968;42.686;23.352;2022-08-19T05:56:09;94905.13;;;22.36;51.35
41234;BME280;26968;42.686;23.352;2022-08-19T05:58:36;94967.41;;;22.97;50.73
41234;BME280;26968;42.686;23.352;2022-08-19T06:01:03;95078.16;;;23.90;50.23
41234;BME280;26968;42.686;23.352;2022-08-19T06:03:34;95073.50;;;23.87;50.27
41234;BME280;26968;42.686;23.352;2022-08-19T06:06:00;95026.66;;;23.64;50.18
41234;BME280;26968;42.686;23.352;2022-08-19T06:08:28;95019.22;;;23.80;50.07
41234;BME280;26968;42.686;23.352;2022-08-19T06:10:54;95023.56;;;23.88;48.68
41234;BME280;26968;42.686;23.352;2022-08-19T06:13:20;95092.94;;;24.38;48.27
41234;BME280;26968;42.686;23.352;2022-08-19T06:15:46;95070.41;;;24.34;48.30
41234;BME280;26968;42.686;23.352;2022-08-19T06:18:13;95086.25;;;24.55;48.26
41234;BME280;26968;42.686;23.352;2022-08-19T06:20:40;95085.13;;;24.59;48.25
41234;BME280;26968;42.686;23.352;2022-08-19T06:23:05;95108.72;;;24.55;48.67
41234;BME280;26968;42.686;23.352;2022-08-19T06:25:31;95057.84;;;24.49;48.28
41234;BME280;26968;42.686;23.352;2022-08-19T06:27:57;95013.41;;;24.27;47.76
41234;BME280;26968;42.686;23.352;2022-08-19T06:30:22;95054.09;;;24.57;47.79
41234;BME280;26968;42.686;23.352;2022-08-19T06:32:48;95053.13;;;24.69;47.52
41234;BME280;26968;42.686;23.352;2022-08-19T06:35:13;95027.31;;;24.52;47.60
41234;BME280;26968;42.686;23.352;2022-08-19T06:37:40;95071.16;;;24.84;47.30
41234;BME280;26968;42.686;23.352;2022-08-19T06:40:06;95075.44;;;24.85;47.54
41234;BME280;26968;42.686;23.352;2022-08-19T06:42:34;95089.94;;;24.96;47.60
41234;BME280;26968;42.686;23.352;2022-08-19T06:45:00;95021.13;;;24.51;47.21
41234;BME280;26968;42.686;23.352;2022-08-19T06:47:28;94936.22;;;24.17;47.26
41234;BME280;26968;42.686;23.352;2022-08-19T06:49:55;95016.56;;;24.59;47.40
41234;BME280;26968;42.686;23.352;2022-08-19T06:52:25;95037.06;;;24.83;47.10
41234;BME280;26968;42.686;23.352;2022-08-19T06:54:50;95056.22;;;24.93;47.05
41234;BME280;26968;42.686;23.352;2022-08-19T06:57:16;95029.59;;;24.76;47.09
41234;BME280;26968;42.686;23.352;2022-08-19T06:59:42;95074.69;;;25.14;46.68
41234;BME280;26968;42.686;23.352;2022-08-19T07:02:07;94999.34;;;24.74;46.10
41234;BME280;26968;42.686;23.352;2022-08-19T07:04:34;94984.91;;;24.67;46.27
41234;BME280;26968;42.686;23.352;2022-08-19T07:07:10;95092.94;;;25.47;46.20
41234;BME280;26968;42.686;23.352;2022-08-19T07:09:39;95091.41;;;25.50;46.02
41234;BME280;26968;42.686;23.352;2022-08-19T07:12:07;95090.00;;;25.59;46.10
41234;BME280;26968;42.686;23.352;2022-08-19T07:14:35;95092.63;;;25.56;46.41
41234;BME280;26968;42.686;23.352;2022-08-19T07:17:04;94972.31;;;24.81;46.45
41234;BME280;26968;42.686;23.352;2022-08-19T07:19:30;95046.72;;;25.40;46.07
41234;BME280;26968;42.686;23.352;2022-08-19T07:21:57;95019.00;;;25.24;46.12
41234;BME280;26968;42.686;23.352;2022-08-19T07:24:25;95095.28;;;25.82;46.04
41234;BME280;26968;42.686;23.352;2022-08-19T07:26:54;95018.38;;;25.37;46.08
41234;BME280;26968;42.686;23.352;2022-08-19T07:29:22;95057.13;;;25.68;45.79
41234;BME280;26968;42.686;23.352;2022-08-19T07:31:49;95089.94;;;25.89;45.75
41234;BME280;26968;42.686;23.352;2022-08-19T07:34:15;95011.72;;;25.31;46.07
41234;BME280;26968;42.686;23.352;2022-08-19T07:36:42;95083.72;;;25.89;45.37
41234;BME280;26968;42.686;23.352;2022-08-19T07:39:14;95067.78;;;25.87;45.12
41234;BME280;26968;42.686;23.352;2022-08-19T07:41:40;95089.75;;;26.08;45.12
41234;BME280;26968;42.686;23.352;2022-08-19T07:44:07;95038.25;;;25.82;45.26
41234;BME280;26968;42.686;23.352;2022-08-19T07:46:35;95089.41;;;26.17;45.17
41234;BME280;26968;42.686;23.352;2022-08-19T07:49:03;95091.44;;;26.24;44.70
41234;BME280;26968;42.686;23.352;2022-08-19T07:51:29;95040.00;;;26.04;44.54
41234;BME280;26968;42.686;23.352;2022-08-19T07:53:54;95045.63;;;26.26;44.74
41234;BME280;26968;42.686;23.352;2022-08-19T07:56:20;95062.41;;;26.31;44.87
41234;BME280;26968;42.686;23.352;2022-08-19T07:58:48;95006.28;;;26.09;44.68
41234;BME280;26968;42.686;23.352;2022-08-19T08:01:25;95081.63;;;26.60;44.00
41234;BME280;26968;42.686;23.352;2022-08-19T08:03:53;95083.88;;;26.47;43.65
41234;BME280;26968;42.686;23.352;2022-08-19T08:06:37;95087.44;;;26.58;43.81
41234;BME280;26968;42.686;23.352;2022-08-19T08:09:27;95079.66;;;26.57;43.33
41234;BME280;26968;42.686;23.352;2022-08-19T08:11:59;95071.94;;;26.62;43.21
41234;BME280;26968;42.686;23.352;2022-08-19T08:14:32;95059.47;;;26.54;43.67
41234;BME280;26968;42.686;23.352;2022-08-19T08:16:58;94991.59;;;26.21;43.53
41234;BME280;26968;42.686;23.352;2022-08-19T08:19:26;95071.72;;;26.88;42.88
41234;BME280;26968;42.686;23.352;2022-08-19T08:21:57;95072.16;;;26.91;42.77
41234;BME280;26968;42.686;23.352;2022-08-19T08:24:24;95026.91;;;26.68;42.38
41234;BME280;26968;42.686;23.352;2022-08-19T08:26:50;95006.28;;;26.60;42.32
41234;BME280;26968;42.686;23.352;2022-08-19T08:29:15;95042.22;;;26.91;41.38
41234;BME280;26968;42.686;23.352;2022-08-19T08:31:43;95026.16;;;26.78;41.46
41234;BME280;26968;42.686;23.352;2022-08-19T08:34:10;95063.34;;;27.15;41.29
41234;BME280;26968;42.686;23.352;2022-08-19T08:36:42;95068.78;;;27.18;41.80
41234;BME280;26968;42.686;23.352;2022-08-19T08:39:14;95024.44;;;27.11;41.09
41234;BME280;26968;42.686;23.352;2022-08-19T08:41:50;95054.03;;;27.19;40.83
41234;BME280;26968;42.686;23.352;2022-08-19T08:44:43;95029.91;;;27.18;40.09
41234;BME280;26968;42.686;23.352;2022-08-19T08:47:11;95035.00;;;27.23;40.58
41234;BME280;26968;42.686;23.352;2022-08-19T08:50:06;95002.66;;;27.18;39.33
41234;BME280;26968;42.686;23.352;2022-08-19T08:52:36;94941.88;;;26.85;38.84
41234;BME280;26968;42.686;23.352;2022-08-19T08:55:10;94999.63;;;27.41;38.51
41234;BME280;26968;42.686;23.352;2022-08-19T09:00:14;95041.00;;;27.78;38.68
41234;BME280;26968;42.686;23.352;2022-08-19T09:02:42;94999.72;;;27.58;39.15
41234;BME280;26968;42.686;23.352;2022-08-19T09:05:09;94978.72;;;27.59;38.27
41234;BME280;26968;42.686;23.352;2022-08-19T09:16:10;95033.31;;;28.30;36.25
41234;BME280;26968;42.686;23.352;2022-08-19T09:18:51;94965.47;;;28.00;35.91
41234;BME280;26968;42.686;23.352;2022-08-19T09:21:19;95010.28;;;28.31;36.11
41234;BME280;26968;42.686;23.352;2022-08-19T09:23:46;95023.91;;;28.56;35.54
41234;BME280;26968;42.686;23.352;2022-08-19T09:26:14;94997.44;;;28.49;34.51
41234;BME280;26968;42.686;23.352;2022-08-19T09:28:41;95019.22;;;28.74;34.84
41234;BME280;26968;42.686;23.352;2022-08-19T09:31:13;94981.81;;;28.64;33.50
41234;BME280;26968;42.686;23.352;2022-08-19T09:33:38;94939.72;;;28.54;32.28
41234;BME280;26968;42.686;23.352;2022-08-19T09:36:10;94916.38;;;28.50;32.57
41234;BME280;26968;42.686;23.352;2022-08-19T09:38:37;94980.94;;;29.02;31.69
41234;BME280;26968;42.686;23.352;2022-08-19T09:41:14;94961.03;;;29.05;31.40
41234;BME280;26968;42.686;23.352;2022-08-19T09:43:41;94915.91;;;28.79;30.83
41234;BME280;26968;42.686;23.352;2022-08-19T09:46:08;94863.38;;;28.47;31.44
41234;BME280;26968;42.686;23.352;2022-08-19T09:48:36;94964.47;;;29.20;30.28
41234;BME280;26968;42.686;23.352;2022-08-19T09:51:13;94920.91;;;28.99;30.02
41234;BME280;26968;42.686;23.352;2022-08-19T09:53:43;95009.13;;;29.65;30.43
41234;BME280;26968;42.686;23.352;2022-08-19T09:56:09;94973.84;;;29.85;30.86
41234;BME280;26968;42.686;23.352;2022-08-19T09:58:35;94922.44;;;30.17;29.14
41234;BME280;26968;42.686;23.352;2022-08-19T10:01:02;94998.47;;;31.45;27.17
41234;BME280;26968;42.686;23.352;2022-08-19T10:03:29;94790.72;;;31.14;26.31
41234;BME280;26968;42.686;23.352;2022-08-19T10:06:00;94948.25;;;33.15;25.57
41234;BME280;26968;42.686;23.352;2022-08-19T10:08:29;94962.97;;;34.13;25.23
41234;BME280;26968;42.686;23.352;2022-08-19T10:10:55;94981.78;;;35.08;24.39
41234;BME280;26968;42.686;23.352;2022-08-19T10:13:24;94943.81;;;35.41;22.75
41234;BME280;26968;42.686;23.352;2022-08-19T10:15:53;94896.28;;;35.50;22.27
41234;BME280;26968;42.686;23.352;2022-08-19T10:18:20;94942.84;;;36.24;21.71
41234;BME280;26968;42.686;23.352;2022-08-19T10:20:47;94945.06;;;36.76;21.60
41234;BME280;26968;42.686;23.352;2022-08-19T10:23:13;94941.34;;;37.14;21.22
41234;BME280;26968;42.686;23.352;2022-08-19T10:25:40;94893.13;;;37.15;20.77
41234;BME280;26968;42.686;23.352;2022-08-19T10:28:06;94953.28;;;37.32;20.91
41234;BME280;26968;42.686;23.352;2022-08-19T10:30:33;94898.34;;;37.13;20.63
41234;BME280;26968;42.686;23.352;2022-08-19T10:32:58;94947.84;;;37.51;20.60
41234;BME280;26968;42.686;23.352;2022-08-19T10:35:24;94862.72;;;37.15;20.52
41234;BME280;26968;42.686;23.352;2022-08-19T10:37:53;94962.22;;;37.98;20.48
41234;BME280;26968;42.686;23.352;2022-08-19T10:40:18;94867.94;;;37.83;19.86
41234;BME280;26968;42.686;23.352;2022-08-19T10:42:44;94863.19;;;38.02;20.20
41234;BME280;26968;42.686;23.352;2022-08-19T10:45:10;94947.34;;;38.72;19.43
41234;BME280;26968;42.686;23.352;2022-08-19T10:47:36;94884.78;;;38.26;19.17
41234;BME280;26968;42.686;23.352;2022-08-19T10:50:03;94939.94;;;38.87;19.14
41234;BME280;26968;42.686;23.352;2022-08-19T10:52:48;94936.69;;;39.07;19.81
41234;BME280;26968;42.686;23.352;2022-08-19T10:55:14;94948.41;;;38.75;19.50
41234;BME280;26968;42.686;23.352;2022-08-19T10:57:58;94934.72;;;38.98;19.15
41234;BME280;26968;42.686;23.352;2022-08-19T11:00:24;94904.22;;;38.89;18.73
41234;BME280;26968;42.686;23.352;2022-08-19T11:02:51;94946.88;;;39.10;19.16
41234;BME280;26968;42.686;23.352;2022-08-19T11:05:17;94836.03;;;38.65;19.04
41234;BME280;26968;42.686;23.352;2022-08-19T11:07:43;94947.28;;;39.45;18.30
41234;BME280;26968;42.686;23.352;2022-08-19T11:10:12;94899.19;;;39.48;18.41
41234;BME280;26968;42.686;23.352;2022-08-19T11:12:38;94919.63;;;40.02;19.11
41234;BME280;26968;42.686;23.352;2022-08-19T11:15:06;94912.91;;;39.94;18.46
41234;BME280;26968;42.686;23.352;2022-08-19T11:17:33;94881.38;;;39.73;18.14
41234;BME280;26968;42.686;23.352;2022-08-19T11:19:58;94883.19;;;40.09;18.04
41234;BME280;26968;42.686;23.352;2022-08-19T11:22:28;94878.19;;;39.56;18.12
41234;BME280;26968;42.686;23.352;2022-08-19T11:24:53;94842.50;;;39.31;18.23
41234;BME280;26968;42.686;23.352;2022-08-19T11:27:20;94940.00;;;39.99;18.14
41234;BME280;26968;42.686;23.352;2022-08-19T11:29:46;94913.19;;;39.96;17.64
41234;BME280;26968;42.686;23.352;2022-08-19T11:32:11;94918.13;;;39.92;17.64
41234;BME280;26968;42.686;23.352;2022-08-19T11:34:38;94918.19;;;39.22;18.38
41234;BME280;26968;42.686;23.352;2022-08-19T11:37:05;94911.75;;;38.89;18.72
41234;BME280;26968;42.686;23.352;2022-08-19T11:39:32;94908.50;;;39.09;18.83
41234;BME280;26968;42.686;23.352;2022-08-19T11:41:59;94811.97;;;38.80;18.73
41234;BME280;26968;42.686;23.352;2022-08-19T11:44:25;94911.56;;;39.29;18.45
41234;BME280;26968;42.686;23.352;2022-08-19T11:46:51;94862.47;;;38.93;18.76
41234;BME280;26968;42.686;23.352;2022-08-19T11:49:19;94868.88;;;39.26;18.77
41234;BME280;26968;42.686;23.352;2022-08-19T11:51:45;94908.47;;;40.11;18.20
41234;BME280;26968;42.686;23.352;2022-08-19T11:54:13;94907.69;;;40.43;18.29
41234;BME280;26968;42.686;23.352;2022-08-19T11:56:39;94898.97;;;40.03;17.80
41234;BME280;26968;42.686;23.352;2022-08-19T11:59:05;94821.94;;;39.56;17.90
41234;BME280;26968;42.686;23.352;2022-08-19T12:01:31;94827.41;;;38.53;18.74
41234;BME280;26968;42.686;23.352;2022-08-19T12:03:57;94859.41;;;38.91;18.67
41234;BME280;26968;42.686;23.352;2022-08-19T12:06:29;94888.88;;;39.30;18.60
41234;BME280;26968;42.686;23.352;2022-08-19T12:08:56;94818.84;;;39.12;18.57
41234;BME280;26968;42.686;23.352;2022-08-19T12:11:22;94859.00;;;39.34;18.34
41234;BME280;26968;42.686;23.352;2022-08-19T12:13:48;94828.28;;;38.87;18.74
41234;BME280;26968;42.686;23.352;2022-08-19T12:16:18;94871.53;;;39.12;18.90
41234;BME280;26968;42.686;23.352;2022-08-19T12:18:45;94871.59;;;39.45;18.60
41234;BME280;26968;42.686;23.352;2022-08-19T12:21:19;94866.63;;;39.58;18.63
41234;BME280;26968;42.686;23.352;2022-08-19T12:23:47;94869.00;;;39.41;18.68
41234;BME280;26968;42.686;23.352;2022-08-19T12:26:14;94802.81;;;39.16;18.73
41234;BME280;26968;42.686;23.352;2022-08-19T12:28:39;94847.72;;;38.96;18.96
41234;BME280;26968;42.686;23.352;2022-08-19T12:31:06;94858.47;;;39.03;18.63
41234;BME280;26968;42.686;23.352;2022-08-19T12:33:32;94835.84;;;38.95;18.55
41234;BME280;26968;42.686;23.352;2022-08-19T12:36:03;94821.72;;;38.75;18.79
41234;BME280;26968;42.686;23.352;2022-08-19T12:38:29;94737.69;;;37.87;19.40
41234;BME280;26968;42.686;23.352;2022-08-19T12:40:55;94822.16;;;38.74;18.96
41234;BME280;26968;42.686;23.352;2022-08-19T12:43:20;94852.94;;;38.76;19.13
41234;BME280;26968;42.686;23.352;2022-08-19T12:45:46;94849.41;;;38.75;19.05
41234;BME280;26968;42.686;23.352;2022-08-19T12:48:13;94836.94;;;38.71;19.01
41234;BME280;26968;42.686;23.352;2022-08-19T12:50:40;94799.09;;;38.40;18.94
41234;BME280;26968;42.686;23.352;2022-08-19T12:53:06;94814.63;;;38.47;18.76
41234;BME280;26968;42.686;23.352;2022-08-19T12:55:31;94755.53;;;38.32;19.14
41234;BME280;26968;42.686;23.352;2022-08-19T12:57:57;94815.97;;;39.06;18.72
41234;BME280;26968;42.686;23.352;2022-08-19T13:00:23;94785.56;;;39.21;18.59
41234;BME280;26968;42.686;23.352;2022-08-19T13:02:51;94836.69;;;39.20;18.85
41234;BME280;26968;42.686;23.352;2022-08-19T13:05:23;94813.13;;;39.15;18.78